createdAt,value
2024-03-05T00:01:13.689Z,2.50
2024-03-05T00:04:00.574Z,2.43
2024-03-05T00:06:47.786Z,2.51
2024-03-05T00:09:34.655Z,2.50
2024-03-05T00:12:21.728Z,2.52
2024-03-05T00:15:08.610Z,2.52
2024-03-05T00:17:55.573Z,2.51
2024-03-05T00:20:42.513Z,2.51
2024-03-05T00:23:29.341Z,2.51
2024-03-05T00:26:16.215Z,2.51
2024-03-05T00:29:03.252Z,2.50
2024-03-05T00:31:50.374Z,2.50
2024-03-05T00:34:37.394Z,2.49
2024-03-05T00:37:24.339Z,2.45
2024-03-05T00:40:11.369Z,2.46
2024-03-05T00:42:58.904Z,2.47
2024-03-05T00:45:45.776Z,2.47
2024-03-05T00:48:32.701Z,2.47
2024-03-05T00:51:19.541Z,2.47
2024-03-05T00:54:06.456Z,2.46
2024-03-05T00:56:53.395Z,2.24
2024-03-05T00:59:40.294Z,2.16
2024-03-05T01:02:27.371Z,2.44
2024-03-05T01:05:15.277Z,2.21
2024-03-05T01:08:02.396Z,2.45
2024-03-05T01:10:49.474Z,2.44
2024-03-05T01:13:36.431Z,2.44
2024-03-05T01:16:23.539Z,2.43
2024-03-05T01:19:10.391Z,2.43
2024-03-05T01:21:57.278Z,2.44
2024-03-05T01:24:44.116Z,2.43
2024-03-05T01:27:30.999Z,2.42
2024-03-05T01:30:17.986Z,2.43
2024-03-05T01:33:04.949Z,2.42
2024-03-05T01:35:52.263Z,2.43
2024-03-05T01:38:39.260Z,2.37
2024-03-05T01:41:26.083Z,2.39
2024-03-05T01:44:12.931Z,2.39
2024-03-05T01:47:01.135Z,2.39
2024-03-05T01:49:50.067Z,2.42
2024-03-05T01:52:36.996Z,2.42
2024-03-05T01:55:30.956Z,2.42
2024-03-05T01:58:19.067Z,2.40
2024-03-05T02:01:07.255Z,2.40
2024-03-05T02:03:58.478Z,2.39
2024-03-05T02:06:45.594Z,2.39
2024-03-05T02:09:32.516Z,2.41
2024-03-05T02:12:19.757Z,2.40
2024-03-05T02:15:06.716Z,2.40
2024-03-05T02:17:53.642Z,2.41
2024-03-05T02:21:00.570Z,2.40
2024-03-05T02:23:47.419Z,2.40
2024-03-05T02:26:34.930Z,2.40
2024-03-05T02:29:23.053Z,2.39
2024-03-05T02:32:10.551Z,2.39
2024-03-05T02:34:57.481Z,2.38
2024-03-05T02:37:44.421Z,2.36
2024-03-05T02:40:35.036Z,2.37
2024-03-05T02:43:21.988Z,2.34
2024-03-05T02:46:08.998Z,2.37
2024-03-05T02:48:55.856Z,2.36
2024-03-05T02:51:42.944Z,2.35
2024-03-05T02:54:29.816Z,2.33
2024-03-05T02:57:16.623Z,2.36
2024-03-05T03:00:03.577Z,2.35
2024-03-05T03:02:50.630Z,2.19
2024-03-05T03:05:38.965Z,2.34
2024-03-05T03:08:25.965Z,2.36
2024-03-05T03:11:12.904Z,2.24
2024-03-05T03:13:59.951Z,2.34
2024-03-05T03:16:46.877Z,2.35
2024-03-05T03:19:33.861Z,2.34
2024-03-05T03:22:20.800Z,2.34
2024-03-05T03:25:07.671Z,2.34
2024-03-05T03:27:54.508Z,2.18
2024-03-05T03:30:41.448Z,2.33
2024-03-05T03:33:28.315Z,2.31
2024-03-05T03:36:15.229Z,2.32
2024-03-05T03:39:02.133Z,2.32
2024-03-05T03:41:50.085Z,2.31
2024-03-05T03:44:37.125Z,2.29
2024-03-05T03:47:23.976Z,2.11
2024-03-05T03:50:10.903Z,2.30
2024-03-05T03:53:01.103Z,2.31
2024-03-05T03:55:48.052Z,2.31
2024-03-05T03:58:34.986Z,2.31
2024-03-05T04:01:22.419Z,2.30
2024-03-05T04:04:09.816Z,2.27
2024-03-05T04:06:56.668Z,2.29
2024-03-05T04:09:43.568Z,2.26
2024-03-05T04:12:30.431Z,2.26
2024-03-05T04:15:17.268Z,2.30
2024-03-05T04:18:04.250Z,2.29
2024-03-05T04:20:51.171Z,2.29
2024-03-05T04:23:38.098Z,2.29
2024-03-05T04:26:25.170Z,2.28
2024-03-05T04:29:12.089Z,2.28
2024-03-05T04:31:58.980Z,2.27
2024-03-05T04:34:46.014Z,2.18
2024-03-05T04:37:33.050Z,2.28
2024-03-05T04:40:20.112Z,2.27
2024-03-05T04:43:07.008Z,2.28
2024-03-05T04:45:55.037Z,2.28
2024-03-05T04:48:42.015Z,2.26
2024-03-05T04:51:32.011Z,2.28
2024-03-05T04:54:18.915Z,2.26
2024-03-05T04:57:05.749Z,2.27
2024-03-05T04:59:53.828Z,2.27
2024-03-05T05:02:40.908Z,2.27
2024-03-05T05:05:28.071Z,2.26
2024-03-05T05:08:16.094Z,2.27
2024-03-05T05:11:03.076Z,2.27
2024-03-05T05:13:49.983Z,2.26
2024-03-05T05:16:36.907Z,2.13
2024-03-05T05:19:23.770Z,2.26
2024-03-05T05:22:10.778Z,2.25
2024-03-05T05:24:57.793Z,2.26
2024-03-05T05:27:44.697Z,2.24
2024-03-05T05:30:31.708Z,2.13
2024-03-05T05:33:18.837Z,2.24
2024-03-05T05:36:05.806Z,2.22
2024-03-05T05:38:52.639Z,2.25
2024-03-05T05:41:39.592Z,2.22
2024-03-05T05:44:26.446Z,2.23
2024-03-05T05:47:13.419Z,2.26
2024-03-05T05:50:00.595Z,2.25
2024-03-05T05:52:47.601Z,2.25
2024-03-05T05:55:34.545Z,2.21
2024-03-05T05:58:21.550Z,2.25
2024-03-05T06:01:08.675Z,2.23
2024-03-05T06:03:58.036Z,2.24
2024-03-05T06:06:44.859Z,2.25
2024-03-05T06:09:31.722Z,2.16
2024-03-05T06:12:20.725Z,2.26
2024-03-05T06:15:07.713Z,2.26
2024-03-05T06:17:54.598Z,2.27
2024-03-05T06:20:41.519Z,2.26
2024-03-05T06:23:28.501Z,2.28
2024-03-05T06:26:15.352Z,2.28
2024-03-05T06:29:02.286Z,2.28
2024-03-05T06:31:29.337Z,2.26
2024-03-05T06:34:16.272Z,2.30
2024-03-05T06:37:03.160Z,2.31
2024-03-05T06:39:52.763Z,2.32
2024-03-05T06:42:39.711Z,2.31
2024-03-05T06:45:27.859Z,2.33
2024-03-05T06:48:18.729Z,2.33
2024-03-05T06:51:07.058Z,2.35
2024-03-05T06:53:52.539Z,2.36
2024-03-05T06:56:37.996Z,2.38
2024-03-05T06:59:24.886Z,2.38
2024-03-05T07:02:11.846Z,2.40
2024-03-05T07:04:59.585Z,2.37
2024-03-05T07:07:46.549Z,2.43
2024-03-05T07:10:36.456Z,2.44
2024-03-05T07:13:23.678Z,2.46
2024-03-05T07:16:10.537Z,2.44
2024-03-05T07:18:57.700Z,2.49
2024-03-05T07:21:45.310Z,2.51
2024-03-05T07:24:32.288Z,2.52
2024-03-05T07:27:19.207Z,2.54
2024-03-05T07:30:06.123Z,2.30
2024-03-05T07:32:52.965Z,2.56
2024-03-05T07:35:39.894Z,2.60
2024-03-05T07:38:27.296Z,2.62
2024-03-05T07:41:22.502Z,2.62
2024-03-05T07:44:16.405Z,2.65
2024-03-05T07:47:03.313Z,2.67
2024-03-05T07:49:50.222Z,2.61
2024-03-05T07:52:37.212Z,2.72
2024-03-05T07:55:31.880Z,2.75
2024-03-05T07:58:23.199Z,2.59
2024-03-05T08:01:10.102Z,2.80
2024-03-05T08:03:56.964Z,2.76
2024-03-05T08:06:44.476Z,2.85
2024-03-05T08:09:31.428Z,2.87
2024-03-05T08:12:21.723Z,2.88
2024-03-05T08:15:09.405Z,2.93
2024-03-05T08:17:58.264Z,2.93
2024-03-05T08:20:47.189Z,2.96
2024-03-05T08:23:34.127Z,2.98
2024-03-05T08:26:21.060Z,3.01
2024-03-05T08:29:08.118Z,3.03
2024-03-05T08:31:54.981Z,3.05
2024-03-05T08:34:41.957Z,3.07
2024-03-05T08:37:28.854Z,3.10
2024-03-05T08:40:15.769Z,3.13
2024-03-05T08:43:04.994Z,3.15
2024-03-05T08:45:52.936Z,2.90
2024-03-05T08:48:39.783Z,3.20
2024-03-05T08:51:26.627Z,3.22
2024-03-05T08:54:16.467Z,3.19
2024-03-05T08:57:04.687Z,3.26
2024-03-05T08:59:51.650Z,3.28
2024-03-05T09:02:38.842Z,3.30
2024-03-05T09:05:26.208Z,3.32
2024-03-05T09:08:13.257Z,3.33
2024-03-05T09:11:00.172Z,3.27
2024-03-05T09:13:47.469Z,3.34
2024-03-05T09:16:34.721Z,3.36
2024-03-05T09:19:21.817Z,3.37
2024-03-05T09:22:09.456Z,3.35
2024-03-05T09:24:56.436Z,3.35
2024-03-05T09:27:43.421Z,3.40
2024-03-05T09:30:31.383Z,3.40
2024-03-05T09:33:18.303Z,3.41
2024-03-05T09:35:45.204Z,3.45
2024-03-05T09:38:32.105Z,3.48
2024-03-05T09:41:19.111Z,3.52
2024-03-05T09:43:46.984Z,3.57
2024-03-05T09:46:34.958Z,3.63
2024-03-05T09:49:23.410Z,3.69
2024-03-05T09:52:12.138Z,3.62
2024-03-05T09:54:58.959Z,3.78
2024-03-05T09:57:46.830Z,3.78
2024-03-05T10:00:38.393Z,3.88
2024-03-05T10:03:27.193Z,3.94
2024-03-05T10:06:14.226Z,3.95
2024-03-05T10:09:01.245Z,4.01
2024-03-05T10:11:48.893Z,4.06
2024-03-05T10:14:35.806Z,4.05
2024-03-05T10:17:22.664Z,4.15
2024-03-05T10:20:09.544Z,4.18
2024-03-05T10:22:56.599Z,4.20
2024-03-05T10:25:43.607Z,4.24
2024-03-05T10:28:30.583Z,4.26
2024-03-05T10:31:20.262Z,4.28
2024-03-05T10:34:07.201Z,4.38
2024-03-05T10:37:04.025Z,4.43
2024-03-05T10:39:53.849Z,4.49
2024-03-05T10:42:43.153Z,4.53
2024-03-05T10:45:30.541Z,4.56
2024-03-05T10:48:20.445Z,4.57
2024-03-05T10:51:10.158Z,4.59
2024-03-05T10:53:57.264Z,4.60
2024-03-05T10:56:45.379Z,4.63
2024-03-05T10:59:12.628Z,4.63
2024-03-05T11:02:00.572Z,4.65
2024-03-05T11:04:51.429Z,4.65
2024-03-05T11:07:38.428Z,4.58
2024-03-05T11:10:26.557Z,4.67
2024-03-05T11:13:13.800Z,4.71
2024-03-05T11:16:01.063Z,4.74
2024-03-05T11:18:52.438Z,4.81
2024-03-05T11:21:39.291Z,4.84
2024-03-05T11:24:26.792Z,4.80
2024-03-05T11:27:22.758Z,4.90
2024-03-05T11:30:09.637Z,4.92
2024-03-05T11:32:57.578Z,4.95
2024-03-05T11:35:47.019Z,4.98
2024-03-05T11:38:34.567Z,4.99
2024-03-05T11:41:21.437Z,5.01
2024-03-05T11:44:08.406Z,5.02
2024-03-05T11:47:13.591Z,5.02
2024-03-05T11:50:00.661Z,5.07
2024-03-05T11:52:48.826Z,5.09
2024-03-05T11:55:45.784Z,5.06
2024-03-05T11:58:32.711Z,5.06
2024-03-05T12:01:23.828Z,5.08
2024-03-05T12:04:24.756Z,5.10
2024-03-05T12:07:18.964Z,5.14
2024-03-05T12:10:05.973Z,5.16
2024-03-05T12:12:52.867Z,5.18
2024-03-05T12:15:40.632Z,5.20
2024-03-05T12:18:31.284Z,5.22
2024-03-05T14:45:18.035Z,4.21
2024-03-05T14:48:05.778Z,4.34
2024-03-05T14:50:52.688Z,4.32
2024-03-05T14:53:40.933Z,4.31
2024-03-05T14:56:31.227Z,4.24
2024-03-05T14:59:18.550Z,4.28
2024-03-05T15:02:05.686Z,4.26
2024-03-05T15:04:52.865Z,4.24
2024-03-05T15:07:39.800Z,4.22
2024-03-05T15:10:28.373Z,4.18
2024-03-05T15:13:15.679Z,4.01
2024-03-05T15:16:02.582Z,4.13
2024-03-05T15:18:49.410Z,4.12
2024-03-05T15:21:36.273Z,4.10
2024-03-05T15:24:23.233Z,4.08
2024-03-05T15:27:10.079Z,4.05
2024-03-05T15:29:57.054Z,4.02
2024-03-05T15:32:43.982Z,4.00
2024-03-05T15:35:31.015Z,3.96
2024-03-05T15:38:18.353Z,3.97
2024-03-05T15:41:05.229Z,3.95
2024-03-05T15:43:55.273Z,3.93
2024-03-05T15:46:42.209Z,3.91
2024-03-05T15:49:29.068Z,3.90
2024-03-05T15:52:16.133Z,3.89
2024-03-05T15:55:02.985Z,3.87
2024-03-05T15:57:49.843Z,3.83
2024-03-05T16:00:37.018Z,3.80
2024-03-05T16:03:26.336Z,3.78
2024-03-05T16:06:00.753Z,3.77
2024-03-05T16:08:53.677Z,3.75
2024-03-05T16:11:40.823Z,3.71
2024-03-05T16:14:28.129Z,3.69
2024-03-05T16:17:15.100Z,3.67
2024-03-05T16:20:03.212Z,3.66
2024-03-05T16:22:50.187Z,3.64
2024-03-05T16:25:37.102Z,3.59
2024-03-05T16:28:24.302Z,3.56
2024-03-05T16:31:13.156Z,3.57
2024-03-05T16:34:01.473Z,3.54
2024-03-05T16:36:48.558Z,3.52
2024-03-05T16:39:35.515Z,3.46
2024-03-05T16:42:22.333Z,3.47
2024-03-05T16:45:09.159Z,3.43
2024-03-05T16:47:56.117Z,3.42
2024-03-05T16:50:44.280Z,3.39
2024-03-05T16:53:31.427Z,3.35
2024-03-05T16:56:18.333Z,3.36
2024-03-05T16:59:05.567Z,3.17
2024-03-05T17:01:52.538Z,3.32
2024-03-05T17:04:39.462Z,3.31
2024-03-05T17:07:26.418Z,3.30
2024-03-05T17:10:13.350Z,3.28
2024-03-05T17:13:00.809Z,3.22
2024-03-05T17:16:00.094Z,3.24
2024-03-05T17:18:47.512Z,3.06
2024-03-05T17:21:34.428Z,3.23
2024-03-05T17:24:21.239Z,3.19
2024-03-05T17:27:08.205Z,3.18
2024-03-05T17:29:55.038Z,3.18
2024-03-05T17:32:41.884Z,3.14
2024-03-05T17:35:29.032Z,3.07
2024-03-05T17:38:15.944Z,3.14
2024-03-05T17:41:02.981Z,3.13
2024-03-05T17:43:50.450Z,3.11
2024-03-05T17:46:39.302Z,3.11
2024-03-05T17:49:26.492Z,3.10
2024-03-05T17:52:13.441Z,2.99
2024-03-05T17:55:00.455Z,3.07
2024-03-05T17:57:47.388Z,3.08
2024-03-05T18:00:27.497Z,3.05
2024-03-05T18:03:18.709Z,3.03
2024-03-05T18:06:05.626Z,3.04
2024-03-05T18:08:52.467Z,3.02
2024-03-05T18:11:39.526Z,3.02
2024-03-05T18:14:26.588Z,3.01
2024-03-05T18:17:13.545Z,3.01
2024-03-05T18:20:00.548Z,3.01
2024-03-05T18:22:47.502Z,2.99
2024-03-05T18:25:38.303Z,2.99
2024-03-05T18:28:25.749Z,2.99
2024-03-05T18:31:12.658Z,2.99
2024-03-05T18:33:59.550Z,2.98
2024-03-05T18:36:46.562Z,2.97
2024-03-05T18:39:33.412Z,2.97
2024-03-05T18:42:21.035Z,2.92
2024-03-05T18:45:07.982Z,2.95
2024-03-05T18:48:02.884Z,2.96
2024-03-05T18:50:55.799Z,2.94
2024-03-05T18:53:46.646Z,2.94
2024-03-05T18:56:36.777Z,2.93
2024-03-05T18:59:23.661Z,2.91
2024-03-05T19:02:10.690Z,2.91
2024-03-05T19:04:57.646Z,2.79
2024-03-05T19:07:44.604Z,2.88
2024-03-05T19:10:32.086Z,2.88
2024-03-05T19:13:19.139Z,2.87
2024-03-05T19:16:06.027Z,2.86
2024-03-05T19:18:52.979Z,2.77
2024-03-05T19:21:39.842Z,2.84
2024-03-05T19:24:26.754Z,2.83
2024-03-05T19:27:14.082Z,2.78
2024-03-05T19:30:01.049Z,2.79
2024-03-05T19:32:48.356Z,2.80
2024-03-05T19:35:37.396Z,2.55
2024-03-05T19:38:24.724Z,2.79
2024-03-05T19:41:11.751Z,2.78
2024-03-05T19:44:02.232Z,2.77
2024-03-05T19:46:49.162Z,2.77
2024-03-05T19:49:38.758Z,2.76
2024-03-05T19:52:25.646Z,2.72
2024-03-05T19:55:12.577Z,2.75
2024-03-05T19:57:59.461Z,2.74
2024-03-05T20:00:26.743Z,2.74
2024-03-05T20:03:14.308Z,2.70
2024-03-05T20:06:01.299Z,2.72
2024-03-05T20:08:48.154Z,2.73
2024-03-05T20:11:35.177Z,2.70
2024-03-05T20:14:22.276Z,2.72
2024-03-05T20:17:05.819Z,2.72
2024-03-05T20:19:52.922Z,2.66
2024-03-05T20:22:40.076Z,2.70
2024-03-05T20:25:27.271Z,2.70
2024-03-05T20:28:14.371Z,2.68
2024-03-05T20:31:01.240Z,2.66
2024-03-05T20:33:48.123Z,2.69
2024-03-05T20:36:35.086Z,2.68
2024-03-05T20:39:22.034Z,2.69
2024-03-05T20:42:08.964Z,2.68
2024-03-05T20:44:55.885Z,2.68
2024-03-05T20:47:43.066Z,2.67
2024-03-05T20:50:31.171Z,2.67
2024-03-05T20:53:18.072Z,2.66
2024-03-05T20:56:05.173Z,2.67
2024-03-05T20:58:52.036Z,2.65
2024-03-05T21:01:38.993Z,2.66
2024-03-05T21:04:25.922Z,2.66
2024-03-05T21:07:12.757Z,2.67
2024-03-05T21:09:59.624Z,2.67
2024-03-05T21:12:46.480Z,2.66
2024-03-05T21:15:33.546Z,2.63
2024-03-05T21:18:20.418Z,2.64
2024-03-05T21:21:07.470Z,2.64
2024-03-05T21:23:54.392Z,2.64
2024-03-05T21:26:54.460Z,2.63
2024-03-05T21:29:48.229Z,2.63
2024-03-05T21:32:35.232Z,2.62
2024-03-05T21:35:22.898Z,2.61
2024-03-05T21:38:09.896Z,2.61
2024-03-05T21:40:56.843Z,2.60
2024-03-05T21:43:43.764Z,2.58
2024-03-05T21:46:10.974Z,2.58
2024-03-05T21:48:37.881Z,2.57
2024-03-05T21:51:24.848Z,2.56
2024-03-05T21:54:11.762Z,2.56
2024-03-05T21:56:58.654Z,2.54
2024-03-05T21:59:45.539Z,2.54
2024-03-05T22:02:32.501Z,2.53
2024-03-05T22:05:19.389Z,2.53
2024-03-05T22:08:07.704Z,2.52
2024-03-05T22:10:54.544Z,2.50
2024-03-05T22:13:41.456Z,2.44
2024-03-05T22:16:28.350Z,2.48
2024-03-05T22:19:15.234Z,2.48
2024-03-05T22:22:02.060Z,2.47
2024-03-05T22:24:48.929Z,2.46
2024-03-05T22:27:36.134Z,2.45
2024-03-05T22:30:24.091Z,2.44
2024-03-05T22:33:11.072Z,2.43
2024-03-05T22:35:59.168Z,2.43
2024-03-05T22:38:46.078Z,2.40
2024-03-05T22:41:33.483Z,2.41
2024-03-05T22:44:20.355Z,2.39
2024-03-05T22:47:07.324Z,2.39
2024-03-05T22:49:54.394Z,2.30
2024-03-05T22:52:41.313Z,2.36
2024-03-05T22:55:29.786Z,2.35
2024-03-05T22:58:16.732Z,2.34
2024-03-05T23:01:03.593Z,2.34
2024-03-05T23:03:50.446Z,2.25
2024-03-05T23:06:37.447Z,2.32
2024-03-05T23:09:24.333Z,2.31
2024-03-05T23:12:11.294Z,2.29
2024-03-05T23:14:58.212Z,2.26
2024-03-05T23:17:45.195Z,2.29
2024-03-05T23:20:32.728Z,2.27
2024-03-05T23:23:19.636Z,2.26
2024-03-05T23:26:06.594Z,2.25
2024-03-05T23:28:53.461Z,2.15
2024-03-05T23:31:40.345Z,2.18
2024-03-05T23:34:27.220Z,2.22
2024-03-05T23:37:14.071Z,2.21
2024-03-05T23:40:00.918Z,2.20
2024-03-05T23:42:47.864Z,2.18
2024-03-05T23:45:34.741Z,2.19
2024-03-05T23:48:21.670Z,2.17
2024-03-05T23:51:08.605Z,2.16
2024-03-05T23:53:55.439Z,2.14
2024-03-05T23:56:42.336Z,2.14
2024-03-05T23:59:29.181Z,2.13
